Terminal Aerodrome Forecast
Issued by NWS Tulsa, OK

Current Version | Previous Version | Text Only | Print | Product List | Glossary On
Versions: 1 2 3 4 5 6 7 8 9 10 11 12
858
FTUS44 KTSA 161720
TAFFSM
TAF
KFSM 161720Z 1618/1718 06006KT P6SM BKN250
     FM170200 12009KT P6SM OVC100
      TEMPO 1702/1706 6SM -RA BR OVC050
     FM170600 07007KT 4SM -RA BR OVC015
     FM170800 08006KT 4SM -RA BR OVC007
     FM171200 09005KT 4SM BR OVC007
     FM171700 15005KT P6SM OVC015=

USA.gov is the U.S. government's official web portal to all federal, state and local government web resources and services.